Time;durP1;ratioP1;P1;durP2;ratioP2;P2;SDS_P1;SDS_P2;PMS_P1;PMS_P2;Temp;Humidity;BMP_temperature;BMP_pressure;BME280_temperature;BME280_humidity;BME280_pressure;Samples;Min_cycle;Max_cycle;Signal;HPM_P1;HPM_P2
2023/12/07 00:04:12;;;;;;;4.22;1.52;;;;;;;18.51;34.94;101909.44;16116816;19;130647;-47
2023/12/07 00:09:34;;;;;;;4.57;1.40;;;;;;;18.49;34.83;101900.50;16108734;19;129571;-44
2023/12/07 00:14:59;;;;;;;2.03;1.52;;;;;;;18.45;35.33;101917.59;16110611;19;129610;-49
2023/12/07 00:20:21;;;;;;;2.00;1.40;;;;;;;18.39;35.07;101906.50;16108625;19;130103;-43
2023/12/07 00:25:43;;;;;;;4.80;1.50;;;;;;;18.34;35.10;101901.59;16111599;19;130786;-48
2023/12/07 00:31:05;;;;;;;2.50;1.73;;;;;;;18.35;35.55;101900.53;16108318;19;129514;-46
2023/12/07 00:36:26;;;;;;;3.55;1.48;;;;;;;18.36;35.33;101901.41;16109514;19;129766;-45
2023/12/07 00:41:48;;;;;;;11.63;1.95;;;;;;;18.36;35.33;101891.16;16111643;19;129789;-46
2023/12/07 00:47:10;;;;;;;2.05;1.33;;;;;;;18.36;35.63;101891.16;16107830;19;129533;-50
2023/12/07 00:52:32;;;;;;;2.33;1.60;;;;;;;18.35;35.35;101889.44;16108416;19;130249;-50
2023/12/07 00:57:54;;;;;;;4.38;1.67;;;;;;;18.34;35.41;101898.81;16108735;19;129450;-49
2023/12/07 01:03:16;;;;;;;4.78;1.38;;;;;;;18.34;35.66;101896.06;16104895;19;130289;-49
2023/12/07 01:08:38;;;;;;;2.38;1.58;;;;;;;18.33;35.61;101911.00;16111799;19;129821;-48
2023/12/07 01:14:00;;;;;;;2.53;1.48;;;;;;;18.29;35.68;101896.72;16106797;19;133827;-50
2023/12/07 01:19:22;;;;;;;2.85;1.42;;;;;;;18.24;35.65;101893.78;16108878;19;131264;-52
2023/12/07 01:24:44;;;;;;;3.33;1.45;;;;;;;18.21;35.52;101901.69;16108498;19;129699;-47
2023/12/07 01:30:07;;;;;;;4.38;1.63;;;;;;;18.17;35.76;101903.19;16104372;19;129519;-49
2023/12/07 01:35:29;;;;;;;3.72;1.33;;;;;;;18.13;35.84;101903.63;16105785;19;130756;-47
2023/12/07 01:40:51;;;;;;;2.30;1.23;;;;;;;18.10;35.60;101912.34;16104298;19;133672;-51
2023/12/07 01:46:14;;;;;;;1.52;1.30;;;;;;;18.08;35.96;101906.22;16101949;19;131420;-49
2023/12/07 01:51:37;;;;;;;1.70;1.27;;;;;;;18.05;35.87;101917.72;16104516;19;129613;-45
2023/12/07 01:56:59;;;;;;;2.88;1.58;;;;;;;18.00;35.99;101898.13;16107780;19;129162;-45
2023/12/07 02:02:20;;;;;;;3.20;1.45;;;;;;;17.96;35.65;101896.88;16108138;19;131037;-46
2023/12/07 02:07:43;;;;;;;3.63;1.40;;;;;;;17.95;35.67;101897.94;16105725;19;131232;-45
2023/12/07 02:13:06;;;;;;;2.88;1.52;;;;;;;17.92;35.65;101899.22;16108577;19;130807;-49
2023/12/07 02:18:44;;;;;;;2.47;1.52;;;;;;;17.91;35.75;101891.13;16116750;19;131233;-51
2023/12/07 02:24:11;;;;;;;2.67;1.38;;;;;;;17.87;35.84;101893.50;16122050;19;131599;-49
2023/12/07 02:29:33;;;;;;;1.20;1.10;;;;;;;17.85;35.69;101901.16;16118390;19;130351;-50
2023/12/07 02:34:55;;;;;;;2.10;1.20;;;;;;;17.81;35.89;101895.22;16116369;19;134098;-49
2023/12/07 02:40:23;;;;;;;2.05;1.48;;;;;;;17.78;35.70;101895.63;16120711;19;130227;-48
2023/12/07 02:45:46;;;;;;;2.25;1.50;;;;;;;17.78;36.10;101889.28;16123498;19;129684;-52
2023/12/07 02:51:08;;;;;;;2.30;1.40;;;;;;;17.74;36.22;101894.38;16135480;19;130274;-50
2023/12/07 02:56:30;;;;;;;2.92;1.50;;;;;;;17.72;35.98;101896.53;16138763;19;130372;-52
2023/12/07 03:01:52;;;;;;;1.42;1.20;;;;;;;17.71;36.08;101907.78;16139847;19;129727;-48
2023/12/07 03:07:14;;;;;;;3.53;1.10;;;;;;;17.68;36.21;101898.00;16134010;19;130867;-44
2023/12/07 03:12:36;;;;;;;1.60;0.98;;;;;;;17.66;36.01;101895.44;16137226;19;131445;-45
2023/12/07 03:17:58;;;;;;;1.75;1.00;;;;;;;17.64;36.20;101893.97;16136884;19;130869;-48
2023/12/07 03:23:20;;;;;;;1.20;1.10;;;;;;;17.62;35.77;101899.72;16136123;19;131108;-48
2023/12/07 03:28:42;;;;;;;1.50;1.05;;;;;;;17.61;36.24;101900.78;16134795;19;129417;-52
2023/12/07 03:34:05;;;;;;;1.15;0.90;;;;;;;17.58;36.09;101906.75;16135406;19;131195;-46
2023/12/07 03:39:29;;;;;;;1.30;1.20;;;;;;;17.56;36.12;101914.41;16139734;19;131698;-47
2023/12/07 03:44:51;;;;;;;1.52;1.00;;;;;;;17.55;36.20;101923.78;16135444;19;129646;-50
2023/12/07 03:50:13;;;;;;;2.30;1.10;;;;;;;17.53;35.85;101921.19;16135456;19;129379;-45
2023/12/07 03:55:36;;;;;;;1.80;1.20;;;;;;;17.50;36.20;101918.84;16131889;19;133553;-47
2023/12/07 04:00:58;;;;;;;1.50;1.15;;;;;;;17.49;35.80;101917.16;16129426;19;129986;-47
2023/12/07 04:06:21;;;;;;;1.55;1.20;;;;;;;17.48;36.22;101917.38;16132561;19;133490;-49
2023/12/07 04:11:43;;;;;;;1.23;1.00;;;;;;;17.46;36.04;101916.72;16134318;19;129716;-45
2023/12/07 04:17:05;;;;;;;1.70;1.20;;;;;;;17.44;35.99;101914.19;16116760;19;130076;-45
2023/12/07 04:22:28;;;;;;;2.15;1.30;;;;;;;17.43;35.81;101909.72;16116957;19;129801;-50
2023/12/07 04:27:51;;;;;;;1.30;1.10;;;;;;;17.41;36.22;101914.63;16121813;19;130117;-48
2023/12/07 04:33:12;;;;;;;1.42;1.10;;;;;;;17.39;35.85;101909.31;16130116;19;130829;-49
2023/12/07 04:38:35;;;;;;;1.15;0.88;;;;;;;17.37;35.76;101900.38;16134705;19;134162;-49
2023/12/07 04:43:57;;;;;;;1.42;1.30;;;;;;;17.36;36.01;101898.66;16121127;19;129509;-48
2023/12/07 04:49:19;;;;;;;1.00;0.90;;;;;;;17.35;36.01;101890.59;16121671;19;129334;-49
2023/12/07 04:54:41;;;;;;;1.48;1.08;;;;;;;17.33;36.07;101896.31;16117200;19;129864;-50
2023/12/07 05:00:07;;;;;;;1.17;1.08;;;;;;;17.33;36.29;101884.41;16115693;19;130809;-47
2023/12/07 05:05:28;;;;;;;1.75;1.33;;;;;;;17.31;35.85;101894.84;16125341;19;130397;-46
2023/12/07 05:10:51;;;;;;;1.83;1.23;;;;;;;17.29;36.00;101880.38;16128698;19;130270;-48
2023/12/07 05:16:13;;;;;;;1.75;1.23;;;;;;;17.28;36.09;101884.19;16128256;19;129582;-47
2023/12/07 05:21:37;;;;;;;1.63;1.20;;;;;;;17.25;36.11;101888.25;16134823;19;129650;-46
2023/12/07 05:26:59;;;;;;;1.30;0.93;;;;;;;17.24;35.85;101883.78;16117261;19;131158;-48
2023/12/07 05:32:22;;;;;;;1.35;1.20;;;;;;;17.22;36.17;101875.72;16114093;19;129515;-47
2023/12/07 05:37:44;;;;;;;1.65;1.30;;;;;;;17.22;35.84;101858.25;16114631;19;130983;-50
2023/12/07 05:43:06;;;;;;;1.48;1.30;;;;;;;17.20;35.77;101854.84;16111622;19;130467;-50
2023/12/07 05:48:28;;;;;;;1.83;1.58;;;;;;;17.18;35.89;101835.72;16115592;19;131268;-49
2023/12/07 05:53:50;;;;;;;1.50;1.40;;;;;;;17.18;36.13;101852.31;16125446;19;129572;-50
2023/12/07 05:59:12;;;;;;;1.40;1.30;;;;;;;17.16;36.15;101843.38;16122830;19;131278;-44
2023/12/07 06:04:34;;;;;;;1.55;1.35;;;;;;;17.15;36.14;101847.19;16121306;19;131393;-48
2023/12/07 06:09:56;;;;;;;3.75;1.50;;;;;;;17.15;35.69;101855.50;16123190;19;129781;-46
2023/12/07 06:15:17;;;;;;;1.88;1.67;;;;;;;17.15;36.00;101844.44;16125175;19;129514;-43
2023/12/07 06:20:41;;;;;;;1.38;1.25;;;;;;;17.14;35.99;101839.97;16127600;19;129262;-43
2023/12/07 06:26:05;;;;;;;2.67;1.30;;;;;;;17.13;35.58;101838.25;16116862;19;129467;-48
2023/12/07 06:31:27;;;;;;;4.43;1.38;;;;;;;17.12;35.76;101831.03;16118524;19;131229;-45
2023/12/07 06:36:49;;;;;;;1.90;1.50;;;;;;;17.12;35.60;101821.88;16120308;19;129271;-48
2023/12/07 06:42:11;;;;;;;4.00;1.27;;;;;;;17.11;35.66;101834.84;16122625;19;131946;-48
2023/12/07 06:47:33;;;;;;;1.77;1.40;;;;;;;17.09;35.64;101831.47;16118845;19;129832;-49
2023/12/07 06:52:55;;;;;;;1.20;1.10;;;;;;;17.08;35.68;101829.78;16121387;19;129143;-53
2023/12/07 06:58:17;;;;;;;2.40;1.40;;;;;;;17.08;36.02;101846.34;16119680;19;129862;-53
2023/12/07 07:03:39;;;;;;;1.90;1.10;;;;;;;17.07;35.57;101844.66;16116847;19;130951;-49
2023/12/07 07:09:01;;;;;;;1.65;1.10;;;;;;;17.04;35.71;101834.00;16121526;19;130126;-45
2023/12/07 07:14:23;;;;;;;2.20;1.25;;;;;;;17.03;36.05;101837.84;16124965;19;130023;-45
2023/12/07 07:19:45;;;;;;;3.38;1.40;;;;;;;17.02;35.76;101838.91;16141365;19;129897;-46
2023/12/07 07:25:08;;;;;;;3.13;1.40;;;;;;;17.01;35.79;101834.44;16135377;19;129725;-44
2023/12/07 07:30:30;;;;;;;2.80;1.23;;;;;;;16.98;36.13;101829.34;16124752;19;132291;-48
2023/12/07 07:35:52;;;;;;;4.38;1.20;;;;;;;16.97;35.83;101824.88;16121511;19;129725;-44
2023/12/07 07:41:16;;;;;;;1.70;1.13;;;;;;;16.95;36.18;101821.47;16120929;19;130225;-43
2023/12/07 07:46:40;;;;;;;1.50;1.25;;;;;;;16.92;35.95;101820.00;16118603;19;130875;-45
2023/12/07 07:52:02;;;;;;;1.88;1.10;;;;;;;16.90;36.03;101824.88;16118902;19;129585;-42
2023/12/07 07:57:24;;;;;;;1.55;1.10;;;;;;;16.88;35.79;101815.94;16116515;19;129518;-45
2023/12/07 08:02:47;;;;;;;1.42;1.00;;;;;;;16.86;35.80;101824.44;16118350;19;130424;-46
2023/12/07 08:08:10;;;;;;;1.52;1.20;;;;;;;16.84;35.77;101832.13;16115853;19;130282;-46
2023/12/07 08:13:32;;;;;;;1.88;1.20;;;;;;;16.84;36.10;101828.47;16118423;19;130759;-44
2023/12/07 08:18:54;;;;;;;1.90;1.52;;;;;;;16.83;36.08;101819.34;16116923;19;129721;-45
2023/12/07 08:24:16;;;;;;;1.30;1.20;;;;;;;16.83;36.16;101815.72;16120153;19;129115;-44
2023/12/07 08:29:38;;;;;;;5.22;1.30;;;;;;;16.82;35.67;101803.84;16115253;19;131422;-47
2023/12/07 08:35:00;;;;;;;1.27;0.95;;;;;;;16.82;35.60;101803.84;16113033;19;130066;-47
2023/12/07 08:40:22;;;;;;;2.55;1.30;;;;;;;16.82;36.00;101800.19;16114260;19;129386;-48
2023/12/07 08:45:44;;;;;;;1.88;1.10;;;;;;;16.82;35.86;101806.59;16115954;19;130349;-45
2023/12/07 08:51:08;;;;;;;1.75;1.20;;;;;;;16.81;35.67;101801.25;16112232;19;129716;-46
2023/12/07 08:56:30;;;;;;;1.63;1.10;;;;;;;16.80;35.61;101803.19;16110968;19;129965;-47
2023/12/07 09:01:52;;;;;;;1.90;1.30;;;;;;;16.79;36.01;101790.44;16112168;19;130038;-43
2023/12/07 09:07:16;;;;;;;1.67;1.17;;;;;;;16.80;35.86;101796.81;16108412;19;129071;-43
2023/12/07 09:12:38;;;;;;;1.80;1.13;;;;;;;16.80;35.87;101791.31;16113811;19;129967;-46
2023/12/07 09:18:00;;;;;;;2.35;1.33;;;;;;;16.79;35.64;101797.88;16112081;19;130699;-45
2023/12/07 09:23:22;;;;;;;4.85;1.27;;;;;;;16.78;35.54;101791.50;16109992;19;129786;-46
2023/12/07 09:28:44;;;;;;;2.53;1.40;;;;;;;16.77;35.53;101778.75;16109251;19;131123;-48
2023/12/07 09:34:08;;;;;;;2.38;1.35;;;;;;;16.76;35.60;101765.97;16109445;19;130311;-47
2023/12/07 09:39:33;;;;;;;1.80;1.13;;;;;;;16.75;35.88;101764.28;16108772;19;130617;-43
2023/12/07 09:44:55;;;;;;;1.40;1.10;;;;;;;16.74;35.54;101748.75;16109606;19;131421;-45
2023/12/07 09:50:21;;;;;;;1.23;1.13;;;;;;;16.73;35.57;101749.84;16110607;19;130621;-45
2023/12/07 09:55:43;;;;;;;1.20;1.08;;;;;;;16.73;35.65;101755.38;16109366;19;131580;-46
2023/12/07 10:01:05;;;;;;;3.38;1.10;;;;;;;16.71;35.38;101740.91;16111287;19;130383;-45
2023/12/07 10:06:42;;;;;;;3.30;1.05;;;;;;;16.73;35.33;101722.22;16108333;19;131741;-45
2023/12/07 10:12:05;;;;;;;1.92;1.25;;;;;;;16.70;35.78;101714.34;16112372;19;129810;-42
2023/12/07 10:17:44;;;;;;;2.60;1.15;;;;;;;16.70;35.72;101711.59;16109439;19;129298;-43
2023/12/07 10:23:08;;;;;;;2.67;1.20;;;;;;;16.67;35.56;101689.91;16107596;19;129887;-43
2023/12/07 10:28:30;;;;;;;2.03;1.17;;;;;;;16.66;35.35;101672.50;16107511;19;129826;-46
2023/12/07 10:33:52;;;;;;;2.13;1.10;;;;;;;16.66;35.46;101666.06;16110777;19;130032;-42
2023/12/07 10:39:15;;;;;;;2.17;1.20;;;;;;;16.66;35.25;101671.59;16120204;19;130988;-43
2023/12/07 10:44:50;;;;;;;1.63;1.30;;;;;;;16.65;35.13;101670.75;16124294;19;129603;-47
2023/12/07 10:50:17;;;;;;;2.30;1.40;;;;;;;16.62;35.32;101669.25;16124586;19;131350;-46
2023/12/07 10:56:09;;;;;;;1.75;1.00;;;;;;;16.75;35.32;101659.28;16120680;19;130387;-43
2023/12/07 11:01:32;;;;;;;2.17;1.13;;;;;;;17.01;34.80;101654.75;16122336;19;129644;-43
2023/12/07 11:07:00;;;;;;;1.63;1.00;;;;;;;17.31;34.66;101640.41;16120575;19;129767;-48
2023/12/07 11:12:35;;;;;;;2.67;1.35;;;;;;;17.54;34.51;101628.78;16119757;19;129855;-44
2023/12/07 11:17:58;;;;;;;1.93;1.10;;;;;;;17.65;34.15;101611.53;16119016;19;129432;-44
2023/12/07 11:23:20;;;;;;;1.50;0.93;;;;;;;17.67;33.93;101601.03;16117842;19;133158;-48
2023/12/07 11:28:43;;;;;;;2.15;1.15;;;;;;;17.66;33.70;101598.50;16115463;19;129314;-50
2023/12/07 11:34:13;;;;;;;1.73;1.15;;;;;;;17.63;34.16;101590.66;16115725;19;130189;-47
2023/12/07 11:39:45;;;;;;;2.05;1.02;;;;;;;17.54;33.86;101584.50;16119011;19;134288;-47
2023/12/07 11:45:07;;;;;;;2.88;1.02;;;;;;;17.47;34.32;101567.13;16117932;19;129485;-46
2023/12/07 11:50:29;;;;;;;1.77;1.27;;;;;;;17.41;34.16;101571.63;16117563;19;130715;-45
2023/12/07 11:55:52;;;;;;;2.20;1.20;;;;;;;17.33;34.39;101578.25;16115537;19;129246;-43
2023/12/07 12:01:16;;;;;;;1.65;1.05;;;;;;;17.26;34.46;101554.47;16116552;19;129452;-45
2023/12/07 12:06:38;;;;;;;1.55;1.08;;;;;;;17.20;34.24;101551.53;16117934;19;129292;-52
2023/12/07 12:12:00;;;;;;;1.35;0.93;;;;;;;17.16;34.43;101541.97;16115815;19;130714;-45
2023/12/07 12:17:24;;;;;;;1.27;1.10;;;;;;;17.12;34.53;101515.84;16113999;19;129707;-45
2023/12/07 12:22:46;;;;;;;2.33;1.00;;;;;;;17.07;34.51;101507.38;16116097;19;130007;-45
2023/12/07 12:28:09;;;;;;;1.65;1.10;;;;;;;17.03;34.71;101482.09;16114674;19;130246;-48
2023/12/07 12:33:31;;;;;;;1.70;1.20;;;;;;;16.99;34.74;101474.44;16108362;19;129354;-44
2023/12/07 12:38:53;;;;;;;1.67;0.98;;;;;;;16.95;34.84;101459.41;16110527;19;130555;-44
2023/12/07 12:44:15;;;;;;;2.20;1.05;;;;;;;16.91;34.75;101434.97;16110351;19;131654;-46
2023/12/07 12:49:52;;;;;;;;;;;;;;;16.86;34.43;101434.75;16113145;19;130025;-45
2023/12/07 12:55:14;;;;;;;1.98;1.30;;;;;;;16.85;34.75;101421.19;16113338;19;130401;-44
2023/12/07 13:00:41;;;;;;;2.17;1.17;;;;;;;16.81;34.55;101409.72;16110125;19;129426;-44
2023/12/07 13:06:03;;;;;;;2.60;1.40;;;;;;;16.77;34.67;101414.84;16113859;19;129947;-47
2023/12/07 13:11:26;;;;;;;1.75;1.20;;;;;;;16.75;34.43;101417.00;16113752;19;130118;-46
2023/12/07 13:16:48;;;;;;;1.25;0.80;;;;;;;16.72;34.83;101402.78;16111214;19;130697;-44
2023/12/07 13:22:10;;;;;;;1.65;1.27;;;;;;;16.70;34.60;101405.75;16111024;19;130347;-43
2023/12/07 13:27:33;;;;;;;1.48;0.98;;;;;;;16.68;34.85;101393.22;16111813;19;130322;-44
2023/12/07 13:32:55;;;;;;;2.03;1.40;;;;;;;16.67;34.71;101375.81;16110460;19;130257;-49
2023/12/07 13:38:19;;;;;;;1.48;0.98;;;;;;;16.63;35.01;101364.31;16110124;19;129247;-45
2023/12/07 13:43:42;;;;;;;2.90;1.48;;;;;;;16.63;34.78;101352.44;16111913;19;129996;-47
2023/12/07 13:49:04;;;;;;;1.48;0.98;;;;;;;16.60;34.54;101345.44;16109215;19;129062;-44
2023/12/07 13:54:32;;;;;;;1.40;0.98;;;;;;;16.58;34.86;101333.75;16108316;19;129511;-44
2023/12/07 14:00:14;;;;;;;3.67;1.20;;;;;;;16.58;34.50;101322.72;16107634;19;129512;-48
2023/12/07 14:05:36;;;;;;;1.52;1.10;;;;;;;16.57;34.97;101315.50;16109994;19;130638;-46
2023/12/07 14:10:58;;;;;;;3.22;0.90;;;;;;;16.55;34.51;101295.53;16121509;19;129702;-45
2023/12/07 14:16:21;;;;;;;1.63;1.00;;;;;;;16.53;34.90;101292.13;16126374;19;130890;-43
2023/12/07 14:22:03;;;;;;;1.27;1.00;;;;;;;16.53;34.72;101280.25;16124640;19;129691;-43
2023/12/07 14:27:25;;;;;;;3.17;1.23;;;;;;;16.52;34.68;101281.31;16123863;19;130339;-45
2023/12/07 14:32:51;;;;;;;1.10;1.00;;;;;;;16.50;34.95;101276.00;16118972;19;130241;-44
2023/12/07 14:38:15;;;;;;;2.10;1.08;;;;;;;16.49;34.77;101262.44;16119384;19;130013;-50
2023/12/07 14:43:37;;;;;;;3.72;1.20;;;;;;;16.46;34.54;101252.69;16123465;19;129764;-44
2023/12/07 14:48:59;;;;;;;3.25;1.25;;;;;;;16.44;34.69;101254.81;16121236;19;130818;-46
2023/12/07 14:54:21;;;;;;;1.20;1.10;;;;;;;16.43;34.57;101261.41;16121107;19;129846;-45
2023/12/07 14:59:50;;;;;;;1.48;1.00;;;;;;;16.41;34.48;101253.38;16123701;19;130320;-43
2023/12/07 15:05:12;;;;;;;1.65;1.08;;;;;;;16.38;34.86;101250.19;16120499;19;130062;-45
2023/12/07 15:10:34;;;;;;;1.92;1.17;;;;;;;16.51;34.31;101244.56;16121317;19;129793;-44
2023/12/07 15:15:56;;;;;;;1.63;1.25;;;;;;;16.77;34.48;101226.97;16124462;19;131739;-44
2023/12/07 15:21:19;;;;;;;3.50;1.30;;;;;;;17.06;33.75;101229.25;16119127;19;129882;-45
2023/12/07 15:26:44;;;;;;;2.35;1.17;;;;;;;17.30;33.50;101215.59;16119562;19;129441;-45
2023/12/07 15:32:07;;;;;;;3.50;1.00;;;;;;;17.41;33.19;101192.69;16114768;19;130172;-43
2023/12/07 15:37:29;;;;;;;2.22;1.02;;;;;;;17.43;33.45;101173.94;16114903;19;129348;-45
2023/12/07 15:42:51;;;;;;;2.00;1.30;;;;;;;17.42;33.12;101161.19;16118786;19;131440;-46
2023/12/07 15:48:12;;;;;;;2.03;1.38;;;;;;;17.36;33.34;101154.69;16119223;19;131743;-45
2023/12/07 15:53:35;;;;;;;1.98;1.00;;;;;;;17.36;32.93;101151.06;16118292;19;130560;-48
2023/12/07 15:58:57;;;;;;;1.73;1.08;;;;;;;17.63;32.89;101136.91;16120534;19;129736;-49
2023/12/07 16:04:18;;;;;;;3.33;1.10;;;;;;;18.08;32.30;101136.47;16117925;19;129752;-42
2023/12/07 16:09:53;;;;;;;2.97;1.05;;;;;;;18.60;31.91;101129.41;16119570;19;129602;-44
2023/12/07 16:15:16;;;;;;;2.45;1.08;;;;;;;18.99;31.78;101118.66;16112507;19;130170;-44
2023/12/07 16:20:38;;;;;;;8.35;1.05;;;;;;;19.21;31.36;101109.69;16114588;19;129415;-49
2023/12/07 16:26:01;;;;;;;5.15;1.23;;;;;;;19.34;30.96;101103.88;16114489;19;130835;-47
2023/12/07 16:31:23;;;;;;;5.63;1.13;;;;;;;19.35;31.22;101105.56;16111219;19;129728;-45
2023/12/07 16:36:45;;;;;;;2.92;1.00;;;;;;;19.25;31.06;101115.63;16105378;19;131039;-46
2023/12/07 16:42:07;;;;;;;3.33;1.17;;;;;;;19.12;31.41;101125.00;16108108;19;129791;-43
2023/12/07 16:47:29;;;;;;;1.65;1.30;;;;;;;18.96;31.44;101118.31;16110088;19;129445;-43
2023/12/07 16:52:51;;;;;;;3.75;1.35;;;;;;;18.80;31.63;101111.59;16111725;19;129563;-46
2023/12/07 16:58:19;;;;;;;6.03;1.50;;;;;;;18.63;31.55;101097.63;16112810;19;131792;-43
2023/12/07 17:03:51;;;;;;;3.30;1.60;;;;;;;18.45;31.71;101080.91;16112756;19;129796;-43
2023/12/07 17:09:13;;;;;;;5.97;1.50;;;;;;;18.28;32.36;101068.81;16110741;19;129544;-42
2023/12/07 17:14:38;;;;;;;8.13;2.03;;;;;;;18.22;32.16;101054.00;16112234;19;129789;-45
2023/12/07 17:20:00;;;;;;;5.05;1.60;;;;;;;18.28;32.08;101054.97;16110937;19;133538;-47
2023/12/07 17:25:22;;;;;;;3.92;1.73;;;;;;;18.55;32.11;101051.72;16108931;19;131572;-49
2023/12/07 17:30:44;;;;;;;5.03;1.52;;;;;;;18.97;32.06;101047.91;16108010;19;131233;-46
2023/12/07 17:36:08;;;;;;;4.20;1.75;;;;;;;19.45;31.42;101059.66;16103356;19;131163;-41
2023/12/07 17:41:30;;;;;;;3.45;1.60;;;;;;;19.83;31.17;101069.22;16098650;19;129537;-44
2023/12/07 17:46:51;;;;;;;5.00;1.65;;;;;;;20.14;30.77;101059.50;16104038;19;130300;-43
2023/12/07 17:52:13;;;;;;;4.93;1.50;;;;;;;20.40;30.58;101067.41;16105896;19;131053;-45
2023/12/07 17:57:35;;;;;;;3.38;1.88;;;;;;;20.62;30.13;101038.81;16103444;19;130509;-50
2023/12/07 18:02:57;;;;;;;4.10;1.52;;;;;;;20.77;30.31;101036.28;16102979;19;129744;-48
2023/12/07 18:08:19;;;;;;;5.13;1.80;;;;;;;20.85;30.33;101037.75;16103038;19;130385;-49
2023/12/07 18:13:41;;;;;;;4.30;1.70;;;;;;;20.82;30.69;101019.63;16101703;19;130795;-47
2023/12/07 18:19:03;;;;;;;9.90;1.55;;;;;;;20.70;30.56;101016.97;16106731;19;129075;-45
2023/12/07 18:24:26;;;;;;;2.55;1.60;;;;;;;20.55;31.01;101017.63;16104006;19;131186;-53
2023/12/07 18:29:48;;;;;;;7.75;1.80;;;;;;;20.38;31.40;100997.34;16106025;19;129566;-46
2023/12/07 18:35:10;;;;;;;7.57;1.70;;;;;;;20.20;31.26;100981.81;16105328;19;130653;-44
2023/12/07 18:40:32;;;;;;;3.60;1.65;;;;;;;20.01;31.65;100986.81;16025316;19;130741;-47
2023/12/07 18:45:53;;;;;;;6.63;2.00;;;;;;;19.81;32.08;100957.63;16094661;19;131456;-47
2023/12/07 18:51:15;;;;;;;7.95;1.92;;;;;;;19.64;31.75;100969.56;16098163;19;130847;-46
2023/12/07 18:56:37;;;;;;;8.93;1.90;;;;;;;19.52;32.09;100957.72;16112667;19;131543;-43
2023/12/07 19:01:59;;;;;;;6.72;1.70;;;;;;;19.39;32.10;100950.53;16120552;19;131637;-46
2023/12/07 19:07:21;;;;;;;4.97;1.60;;;;;;;19.41;32.29;100933.66;16117511;19;129766;-49
2023/12/07 19:12:43;;;;;;;3.60;1.88;;;;;;;19.62;31.83;100913.47;16119283;19;129829;-44
2023/12/07 19:18:06;;;;;;;2.35;1.50;;;;;;;19.95;31.72;100891.47;16119140;19;130755;-44
2023/12/07 19:23:28;;;;;;;4.38;1.60;;;;;;;20.21;31.39;100856.56;16120530;19;129567;-40
2023/12/07 19:28:51;;;;;;;4.35;1.70;;;;;;;20.50;30.89;100847.16;16118610;19;130633;-43
2023/12/07 19:34:14;;;;;;;2.60;1.50;;;;;;;20.72;30.82;100828.50;16110718;19;132143;-43
2023/12/07 19:39:36;;;;;;;5.63;1.73;;;;;;;20.85;30.80;100810.59;16089921;19;129950;-46
2023/12/07 19:44:58;;;;;;;2.47;1.58;;;;;;;20.87;30.62;100807.53;16116057;19;130095;-49
2023/12/07 19:50:20;;;;;;;3.17;1.50;;;;;;;20.80;30.63;100793.84;16116308;19;130468;-49
2023/12/07 19:55:42;;;;;;;5.53;1.60;;;;;;;20.65;30.62;100785.34;16115321;19;129877;-47
2023/12/07 20:01:06;;;;;;;4.57;1.70;;;;;;;20.46;30.33;100777.38;16116202;19;129362;-41
2023/12/07 20:06:28;;;;;;;5.40;1.70;;;;;;;20.27;30.57;100749.97;16114021;19;130070;-43
2023/12/07 20:11:59;;;;;;;4.45;1.80;;;;;;;20.09;30.58;100742.84;16111944;19;129863;-41
2023/12/07 20:17:21;;;;;;;3.83;1.40;;;;;;;19.94;30.80;100724.00;16114410;19;131249;-46
2023/12/07 20:22:43;;;;;;;3.05;1.60;;;;;;;19.83;30.98;100702.78;16112709;19;129662;-48
2023/12/07 20:28:05;;;;;;;3.70;1.60;;;;;;;19.67;30.84;100702.63;16113301;19;129478;-43
2023/12/07 20:33:27;;;;;;;2.03;1.40;;;;;;;19.58;31.03;100692.25;16108002;19;130548;-49
2023/12/07 20:38:52;;;;;;;2.60;1.50;;;;;;;19.65;30.83;100690.94;16111720;19;130235;-45
2023/12/07 20:44:14;;;;;;;2.92;1.55;;;;;;;19.87;30.70;100678.97;16110112;19;129631;-43
2023/12/07 20:49:36;;;;;;;2.05;1.05;;;;;;;20.12;30.50;100649.81;16113532;19;129866;-53
2023/12/07 20:55:01;;;;;;;1.30;1.17;;;;;;;20.37;30.70;100637.25;16108091;19;130804;-42
2023/12/07 21:00:23;;;;;;;5.55;1.38;;;;;;;20.54;30.25;100614.88;16104754;19;131419;-44
2023/12/07 21:05:45;;;;;;;6.20;1.60;;;;;;;20.64;29.66;100589.09;16108745;19;130866;-46
2023/12/07 21:11:09;;;;;;;6.72;1.65;;;;;;;20.64;29.91;100608.56;16108673;19;129864;-47
2023/12/07 21:16:31;;;;;;;5.03;1.30;;;;;;;20.52;29.67;100628.19;16108673;19;129765;-42
2023/12/07 21:21:53;;;;;;;2.90;1.45;;;;;;;20.39;29.59;100632.28;16107478;19;130858;-44
2023/12/07 21:27:19;;;;;;;2.70;1.40;;;;;;;20.21;29.81;100616.84;16110782;19;133421;-42
2023/12/07 21:32:41;;;;;;;3.03;1.40;;;;;;;20.00;30.05;100633.31;16108884;19;131110;-44
2023/12/07 21:38:03;;;;;;;2.08;1.40;;;;;;;19.83;30.13;100627.84;16104395;19;129828;-45
2023/12/07 21:43:25;;;;;;;2.90;1.30;;;;;;;19.67;30.04;100613.81;16107866;19;131240;-45
2023/12/07 21:48:48;;;;;;;2.65;1.50;;;;;;;19.53;30.57;100598.69;16105615;19;129553;-45
2023/12/07 21:54:10;;;;;;;3.17;1.33;;;;;;;19.40;30.69;100596.31;16107321;19;129668;-42
2023/12/07 21:59:32;;;;;;;2.40;1.33;;;;;;;19.26;30.47;100596.69;16106064;19;129645;-43
2023/12/07 22:04:54;;;;;;;1.98;1.17;;;;;;;19.17;30.83;100617.63;16106003;19;129503;-43
2023/12/07 22:10:19;;;;;;;2.67;1.42;;;;;;;19.10;30.88;100630.84;16107123;19;131030;-43
2023/12/07 22:15:50;;;;;;;2.80;1.50;;;;;;;18.98;30.86;100619.88;16107096;19;129126;-44
2023/12/07 22:21:12;;;;;;;2.28;1.15;;;;;;;18.88;31.26;100623.34;16107204;19;129698;-45
2023/12/07 22:26:34;;;;;;;1.92;1.23;;;;;;;18.80;30.85;100609.94;16105341;19;130176;-44
2023/12/07 22:31:55;;;;;;;3.15;1.48;;;;;;;18.70;31.07;100600.38;16116762;19;130879;-43
2023/12/07 22:37:17;;;;;;;2.15;1.20;;;;;;;18.61;31.06;100596.34;16120285;19;130751;-44
2023/12/07 22:42:39;;;;;;;3.03;1.50;;;;;;;18.52;31.63;100593.19;16123820;19;130921;-45
2023/12/07 22:48:02;;;;;;;2.63;1.35;;;;;;;18.46;31.67;100566.50;16120898;19;129710;-43
2023/12/07 22:53:24;;;;;;;2.65;1.13;;;;;;;18.38;31.54;100598.19;16121780;19;129646;-41
2023/12/07 22:58:49;;;;;;;2.45;1.25;;;;;;;18.34;31.48;100618.34;16117438;19;131038;-42
2023/12/07 23:04:11;;;;;;;1.77;1.23;;;;;;;18.29;31.50;100622.69;16118381;19;129778;-45
2023/12/07 23:09:33;;;;;;;1.83;1.13;;;;;;;18.25;31.72;100601.28;16119745;19;131401;-44
2023/12/07 23:14:55;;;;;;;1.40;1.13;;;;;;;18.20;31.82;100595.69;16122106;19;135344;-43
2023/12/07 23:20:17;;;;;;;2.08;1.13;;;;;;;18.16;31.92;100589.78;16119726;19;129661;-44
2023/12/07 23:25:40;;;;;;;1.58;1.02;;;;;;;18.11;31.69;100593.31;16116244;19;129532;-47
2023/12/07 23:31:02;;;;;;;1.70;1.27;;;;;;;18.06;32.00;100584.94;16118849;19;131210;-43
2023/12/07 23:36:24;;;;;;;2.65;1.10;;;;;;;18.03;32.13;100573.53;16115905;19;129850;-46
2023/12/07 23:41:46;;;;;;;2.92;1.30;;;;;;;17.99;32.19;100565.72;16113766;19;131992;-44
2023/12/07 23:47:08;;;;;;;1.38;1.10;;;;;;;17.95;31.67;100563.72;16114541;19;129530;-41
2023/12/07 23:52:30;;;;;;;1.35;1.08;;;;;;;17.91;32.04;100560.59;16117659;19;130136;-42
2023/12/07 23:57:52;;;;;;;3.13;1.17;;;;;;;17.87;32.18;100553.03;16116796;19;131538;-42
